Time;durP1;ratioP1;P1;durP2;ratioP2;P2;SDS_P1;SDS_P2;PMS_P1;PMS_P2;Temp;Humidity;BMP_temperature;BMP_pressure;BME280_temperature;BME280_humidity;BME280_pressure;Samples;Min_cycle;Max_cycle;Signal;HPM_P1;HPM_P2
2023/01/09 00:01:45;;;;;;;;;0.00;0.00;;;;;11.02;72.84;100190.81;5026043;28;45509;-75
2023/01/09 00:04:11;;;;;;;;;0.00;0.00;;;;;10.99;73.01;100180.31;5025442;28;46268;-76
2023/01/09 00:06:39;;;;;;;;;3.25;3.00;;;;;11.05;73.08;100191.78;5018857;28;45447;-77
2023/01/09 00:09:05;;;;;;;;;2.00;0.00;;;;;11.01;72.55;100179.50;5018931;28;45304;-76
2023/01/09 00:11:31;;;;;;;;;3.33;2.67;;;;;11.12;72.46;100198.00;5018680;28;46224;-76
2023/01/09 00:13:57;;;;;;;;;10.00;9.75;;;;;11.09;72.57;100192.75;5017807;28;45455;-76
2023/01/09 00:16:23;;;;;;;;;0.67;0.00;;;;;11.14;72.59;100193.69;5024213;28;45351;-76
2023/01/09 00:18:49;;;;;;;;;12.75;11.50;;;;;11.18;72.43;100203.41;5020643;28;45601;-76
2023/01/09 00:21:15;;;;;;;;;2.33;1.00;;;;;11.20;72.48;100193.88;5022259;28;45544;-76
2023/01/09 00:23:41;;;;;;;;;5.00;4.00;;;;;11.22;72.13;100192.16;5024012;28;46813;-73
2023/01/09 00:26:10;;;;;;;;;6.75;5.50;;;;;11.24;72.34;100192.19;5026328;28;45434;-74
2023/01/09 00:28:37;;;;;;;;;1.00;1.00;;;;;11.19;71.94;100189.47;5021043;28;45867;-77
2023/01/09 00:31:04;;;;;;;;;2.33;2.00;;;;;11.18;72.51;100205.13;5025221;28;45546;-77
2023/01/09 00:33:33;;;;;;;;;3.00;3.00;;;;;11.14;72.39;100219.84;5022835;28;46015;-78
2023/01/09 00:35:59;;;;;;;;;10.00;8.00;;;;;11.14;72.54;100218.13;5018596;28;45549;-76
2023/01/09 00:38:24;;;;;;;;;12.00;12.00;;;;;11.17;72.65;100224.28;5020255;28;45386;-76
2023/01/09 00:40:50;;;;;;;;;7.00;6.25;;;;;11.16;73.04;100226.03;5019989;28;45410;-75
2023/01/09 00:43:17;;;;;;;;;4.67;2.00;;;;;11.11;73.15;100254.66;5018033;28;46136;-75
2023/01/09 00:45:44;;;;;;;;;0.00;0.00;;;;;11.12;73.91;100238.13;5018941;28;45718;-75
2023/01/09 00:48:14;;;;;;;;;0.00;0.00;;;;;11.03;74.43;100226.59;5020738;28;45427;-75
2023/01/09 00:50:40;;;;;;;;;0.00;0.00;;;;;10.91;73.35;100225.44;5022433;28;45479;-68
2023/01/09 00:53:09;;;;;;;;;0.67;0.00;;;;;10.99;73.78;100256.13;5018100;28;45307;-75
2023/01/09 00:55:37;;;;;;;;;0.00;0.00;;;;;11.00;74.81;100242.19;5021956;28;45553;-75
2023/01/09 00:58:03;;;;;;;;;0.00;0.00;;;;;11.01;74.46;100244.84;5021977;28;45652;-74
2023/01/09 01:00:29;;;;;;;;;0.00;0.00;;;;;10.94;74.13;100228.13;5019706;28;45538;-75
2023/01/09 01:02:55;;;;;;;;;0.00;0.00;;;;;11.04;74.23;100229.25;5021897;28;45966;-76
2023/01/09 01:08:15;;;;;;;;;5.00;5.00;;;;;10.98;73.94;100230.81;5019849;28;45462;-70
2023/01/09 01:10:42;;;;;;;;;2.75;2.00;;;;;10.99;73.85;100237.81;5019937;28;45391;-75
2023/01/09 01:13:07;;;;;;;;;1.50;0.75;;;;;10.97;74.13;100232.53;5021226;28;45401;-67
2023/01/09 01:15:33;;;;;;;;;0.67;0.00;;;;;10.74;74.30;100218.94;5019635;28;45477;-75
2023/01/09 01:17:59;;;;;;;;;0.67;0.00;;;;;10.92;74.49;100231.53;5020386;28;45434;-66
2023/01/09 01:20:25;;;;;;;;;0.00;0.00;;;;;10.80;74.28;100207.75;5018254;28;45521;-73
2023/01/09 01:22:50;;;;;;;;;3.00;2.00;;;;;10.93;73.63;100218.53;5019463;28;46167;-75
2023/01/09 01:25:17;;;;;;;;;6.75;4.00;;;;;11.02;73.97;100230.03;5022050;28;45565;-76
2023/01/09 01:27:48;;;;;;;;;1.50;0.75;;;;;11.04;73.72;100233.56;5022754;28;45658;-75
2023/01/09 01:30:20;;;;;;;;;1.00;0.00;;;;;10.79;73.79;100226.91;5021154;28;45474;-75
2023/01/09 01:32:45;;;;;;;;;0.00;0.00;;;;;10.92;74.54;100289.94;5021322;28;46221;-74
2023/01/09 01:35:11;;;;;;;;;0.00;0.00;;;;;11.00;75.00;100315.38;5020060;28;45524;-74
2023/01/09 01:37:37;;;;;;;;;1.00;0.00;;;;;10.98;74.91;100314.44;5020731;28;45485;-71
2023/01/09 01:40:05;;;;;;;;;1.00;0.00;;;;;10.90;75.06;100288.13;5017713;28;45573;-70
2023/01/09 01:42:33;;;;;;;;;1.00;0.00;;;;;10.91;74.09;100295.13;5021866;28;45456;-66
2023/01/09 01:45:20;;;;;;;;;0.00;0.00;;;;;10.91;74.34;100293.38;5019324;28;45563;-66
2023/01/09 01:48:12;;;;;;;;;0.67;0.00;;;;;10.85;73.92;100285.41;5021549;28;45484;-66
2023/01/09 01:50:51;;;;;;;;;1.00;0.00;;;;;10.80;73.32;100291.34;5015513;28;45578;-66
2023/01/09 01:53:34;;;;;;;;;1.00;0.00;;;;;10.75;73.52;100299.09;4999917;28;45832;-66
2023/01/09 01:56:23;;;;;;;;;0.00;0.00;;;;;10.71;73.36;100290.28;5018485;28;45403;-66
2023/01/09 01:59:00;;;;;;;;;0.67;0.00;;;;;10.82;73.78;100301.00;5016998;28;45356;-73
2023/01/09 02:01:26;;;;;;;;;1.67;0.00;;;;;10.80;72.99;100284.41;5015704;28;45472;-76
2023/01/09 02:03:56;;;;;;;;;1.00;0.00;;;;;10.80;72.05;100286.13;5017652;28;45690;-72
2023/01/09 02:06:22;;;;;;;;;0.67;0.00;;;;;10.75;71.88;100279.06;5017421;28;45408;-75
2023/01/09 02:08:48;;;;;;;;;0.33;0.00;;;;;10.76;71.99;100287.78;5019913;28;45557;-76
2023/01/09 02:11:18;;;;;;;;;0.00;0.00;;;;;10.77;71.63;100275.63;5020696;28;45367;-75
2023/01/09 02:13:44;;;;;;;;;0.00;0.00;;;;;10.79;72.14;100273.94;5020261;28;45525;-74
2023/01/09 02:16:12;;;;;;;;;1.00;0.00;;;;;10.82;72.13;100290.53;5017243;28;45470;-75
2023/01/09 02:18:50;;;;;;;;;2.00;1.00;;;;;10.63;72.24;100277.88;5017131;28;45606;-75
2023/01/09 02:21:37;;;;;;;;;2.00;0.00;;;;;10.83;72.55;100317.56;5019765;28;45571;-75
2023/01/09 02:24:35;;;;;;;;;7.00;6.50;;;;;10.85;72.54;100327.22;5018111;28;45430;-72
2023/01/09 02:27:29;;;;;;;;;5.25;5.00;;;;;10.87;72.22;100325.53;5016968;28;45458;-75
2023/01/09 02:30:16;;;;;;;;;2.00;2.00;;;;;10.84;72.18;100332.41;5016485;28;45241;-76
2023/01/09 02:32:44;;;;;;;;;2.00;1.00;;;;;10.81;71.39;100334.94;5019534;28;45568;-75
2023/01/09 02:35:23;;;;;;;;;0.00;0.00;;;;;10.83;71.54;100339.34;5019315;28;46263;-76
2023/01/09 02:38:34;;;;;;;;;1.00;0.00;;;;;10.75;71.18;100357.44;5016376;28;45504;-74
2023/01/09 02:41:33;;;;;;;;;2.00;0.33;;;;;10.76;71.85;100368.78;5019158;28;45524;-75
2023/01/09 02:44:15;;;;;;;;;0.67;0.00;;;;;10.77;72.32;100370.56;5020248;28;45324;-76
2023/01/09 02:46:41;;;;;;;;;1.00;1.00;;;;;10.78;72.36;100360.97;5015956;28;45362;-69
2023/01/09 02:49:07;;;;;;;;;0.00;0.00;;;;;10.70;72.78;100369.53;5017578;28;45371;-76
2023/01/09 02:52:03;;;;;;;;;0.00;0.00;;;;;10.70;72.55;100366.00;5017458;28;45404;-74
2023/01/09 02:55:10;;;;;;;;;1.00;0.00;;;;;10.70;72.82;100351.22;5006391;28;45606;-75
2023/01/09 02:58:03;;;;;;;;;1.00;1.00;;;;;10.68;72.79;100372.91;5011876;28;46164;-76
2023/01/09 03:00:38;;;;;;;;;1.00;0.00;;;;;10.69;72.63;100385.16;5017597;28;45575;-76
2023/01/09 03:03:07;;;;;;;;;1.00;0.67;;;;;10.63;73.54;100388.47;5019217;28;45343;-72
2023/01/09 03:05:59;;;;;;;;;0.00;0.00;;;;;10.57;73.22;100398.75;5018187;28;45518;-75
2023/01/09 03:08:34;;;;;;;;;0.67;0.00;;;;;10.52;73.51;100402.97;5018584;28;45515;-74
2023/01/09 03:11:05;;;;;;;;;2.00;1.00;;;;;10.47;73.39;100387.16;5020605;28;45404;-76
2023/01/09 03:13:52;;;;;;;;;0.00;0.00;;;;;10.46;73.43;100390.59;5017073;28;45372;-76
2023/01/09 03:16:30;;;;;;;;;0.00;0.00;;;;;10.30;74.47;100388.41;5019711;28;45383;-76
2023/01/09 03:18:58;;;;;;;;;1.00;0.75;;;;;10.31;73.82;100383.25;5022517;28;45414;-75
2023/01/09 03:21:25;;;;;;;;;0.00;0.00;;;;;10.48;73.22;100422.88;5019555;28;45462;-75
2023/01/09 03:23:55;;;;;;;;;1.00;0.00;;;;;10.45;73.57;100420.19;5024016;28;45391;-77
2023/01/09 03:26:21;;;;;;;;;1.00;0.00;;;;;10.42;73.08;100408.78;5023577;28;45607;-76
2023/01/09 03:28:47;;;;;;;;;0.00;0.00;;;;;10.38;72.61;100399.09;5022771;28;45561;-76
2023/01/09 03:31:13;;;;;;;;;1.00;0.00;;;;;10.27;70.97;100404.84;5021351;28;45502;-75
2023/01/09 03:33:39;;;;;;;;;0.00;0.00;;;;;10.27;71.61;100414.41;5023235;28;47011;-76
2023/01/09 03:36:06;;;;;;;;;0.50;0.25;;;;;10.23;70.07;100394.28;5024892;28;45609;-75
2023/01/09 03:38:32;;;;;;;;;0.00;0.00;;;;;10.20;70.70;100396.78;5019825;28;46620;-76
2023/01/09 03:40:58;;;;;;;;;1.00;0.00;;;;;10.16;70.88;100398.44;5022895;28;45416;-76
2023/01/09 03:43:23;;;;;;;;;3.00;1.75;;;;;10.11;70.62;100397.44;5019939;28;45503;-76
2023/01/09 03:45:49;;;;;;;;;1.00;1.00;;;;;9.99;71.45;100397.94;5021931;28;45537;-69
2023/01/09 03:48:15;;;;;;;;;1.00;1.00;;;;;9.90;71.60;100400.25;5023012;28;45443;-76
2023/01/09 03:50:44;;;;;;;;;0.00;0.00;;;;;9.83;71.37;100395.69;5019286;28;45448;-74
2023/01/09 03:53:11;;;;;;;;;0.33;0.00;;;;;9.73;71.28;100377.16;5021570;28;45454;-76
2023/01/09 03:55:38;;;;;;;;;1.50;1.00;;;;;9.72;71.27;100366.69;5022271;28;45448;-75
2023/01/09 03:58:04;;;;;;;;;1.67;0.00;;;;;9.97;70.66;100399.63;5020151;28;45970;-76
2023/01/09 04:00:29;;;;;;;;;1.50;1.00;;;;;9.94;70.71;100396.91;5022270;28;45484;-76
2023/01/09 04:02:55;;;;;;;;;2.00;0.00;;;;;10.05;71.11;100412.91;5021396;28;45452;-75
2023/01/09 04:05:20;;;;;;;;;0.00;0.00;;;;;10.08;70.93;100419.06;5019912;28;45408;-75
2023/01/09 04:07:46;;;;;;;;;0.25;0.00;;;;;10.05;70.80;100429.44;5019964;28;46176;-75
2023/01/09 04:10:11;;;;;;;;;1.00;0.00;;;;;10.01;70.58;100434.50;5022324;28;45480;-76
2023/01/09 04:12:37;;;;;;;;;0.00;0.00;;;;;9.93;70.66;100445.59;5023838;28;45444;-76
2023/01/09 04:15:03;;;;;;;;;3.00;1.00;;;;;9.89;70.86;100441.13;5023413;28;45433;-76
2023/01/09 04:17:28;;;;;;;;;0.33;0.00;;;;;9.83;71.67;100446.16;5020616;28;45438;-77
2023/01/09 04:19:54;;;;;;;;;0.00;0.00;;;;;9.82;71.38;100446.13;5018192;28;45554;-76
2023/01/09 04:22:19;;;;;;;;;1.67;0.00;;;;;9.80;71.25;100439.97;5022212;28;46721;-69
2023/01/09 04:24:45;;;;;;;;;2.00;1.00;;;;;9.80;71.33;100445.19;5022507;28;45570;-75
2023/01/09 04:27:11;;;;;;;;;0.67;0.33;;;;;9.81;70.92;100450.44;5021879;28;46007;-76
2023/01/09 04:29:37;;;;;;;;;1.00;0.67;;;;;9.83;71.18;100448.78;5021377;28;45581;-76
2023/01/09 04:32:02;;;;;;;;;0.67;0.00;;;;;9.86;70.93;100448.84;5022114;28;45466;-74
2023/01/09 04:34:28;;;;;;;;;1.00;0.00;;;;;9.90;70.97;100457.66;5018237;28;45439;-76
2023/01/09 04:36:54;;;;;;;;;1.00;0.33;;;;;9.92;70.49;100459.47;5021800;28;45810;-76
2023/01/09 04:39:20;;;;;;;;;2.33;0.33;;;;;9.87;70.70;100465.41;5018669;28;45585;-68
2023/01/09 04:41:48;;;;;;;;;2.00;0.00;;;;;9.75;70.85;100452.88;5024494;28;45309;-75
2023/01/09 04:44:18;;;;;;;;;0.00;0.00;;;;;9.67;71.04;100454.31;5020805;28;45418;-75
2023/01/09 04:46:44;;;;;;;;;0.00;0.00;;;;;9.70;71.28;100460.53;5021802;28;45762;-76
2023/01/09 04:49:09;;;;;;;;;1.00;0.00;;;;;9.50;71.21;100439.03;5023643;28;45434;-76
2023/01/09 04:51:35;;;;;;;;;1.00;0.00;;;;;9.62;71.71;100463.75;5002387;28;46134;-76
2023/01/09 04:54:00;;;;;;;;;2.50;0.00;;;;;9.36;71.56;100417.72;5021699;28;45553;-76
2023/01/09 04:56:26;;;;;;;;;0.75;0.25;;;;;9.58;71.52;100456.66;5015460;28;46237;-76
2023/01/09 04:58:51;;;;;;;;;1.00;0.00;;;;;9.59;71.72;100464.53;5018728;28;45472;-76
2023/01/09 05:01:17;;;;;;;;;2.00;1.00;;;;;9.61;71.74;100462.84;5017180;28;45430;-76
2023/01/09 05:03:42;;;;;;;;;1.00;1.00;;;;;9.60;71.48;100458.47;5016956;28;45411;-76
2023/01/09 05:06:08;;;;;;;;;3.00;0.00;;;;;9.72;71.12;100463.19;5016615;28;45467;-76
2023/01/09 05:08:33;;;;;;;;;2.50;1.50;;;;;9.62;71.00;100443.75;5016159;28;45428;-76
2023/01/09 05:10:59;;;;;;;;;1.00;1.00;;;;;9.75;70.75;100466.78;5016619;28;45454;-76
2023/01/09 05:13:25;;;;;;;;;1.00;0.00;;;;;9.85;70.57;100490.56;5019502;28;45459;-76
2023/01/09 05:15:50;;;;;;;;;0.00;0.00;;;;;9.88;70.60;100493.25;5018316;28;45559;-71
2023/01/09 05:18:16;;;;;;;;;0.75;0.25;;;;;9.87;70.88;100499.34;5018116;28;45497;-77
2023/01/09 05:20:41;;;;;;;;;1.67;0.00;;;;;9.81;70.77;100497.41;5018355;28;45448;-77
2023/01/09 05:23:08;;;;;;;;;3.25;0.25;;;;;9.76;71.04;100493.75;5018831;28;45336;-77
2023/01/09 05:25:34;;;;;;;;;2.50;0.00;;;;;9.75;71.07;100497.22;5012073;28;45327;-77
2023/01/09 05:28:00;;;;;;;;;2.00;0.00;;;;;9.73;71.24;100497.16;5013447;28;45348;-77
2023/01/09 05:30:26;;;;;;;;;2.00;1.00;;;;;9.69;71.24;100487.47;5024865;28;45509;-76
2023/01/09 05:32:52;;;;;;;;;3.00;0.00;;;;;9.67;71.23;100490.84;5034036;28;45560;-73
2023/01/09 05:35:18;;;;;;;;;1.67;1.00;;;;;9.71;70.84;100491.00;5022430;28;45421;-76
2023/01/09 05:37:45;;;;;;;;;0.00;0.00;;;;;9.56;70.81;100449.66;5028704;28;45542;-76
2023/01/09 05:40:11;;;;;;;;;3.00;1.00;;;;;9.84;70.57;100487.06;5028983;28;45502;-77
2023/01/09 05:42:36;;;;;;;;;0.50;0.25;;;;;9.87;70.45;100488.91;5020989;28;45401;-77
2023/01/09 05:45:03;;;;;;;;;1.00;0.00;;;;;9.73;70.06;100452.81;5037064;28;46155;-75
2023/01/09 05:47:28;;;;;;;;;3.50;1.00;;;;;9.91;69.95;100481.22;5006401;28;45457;-76
2023/01/09 05:49:55;;;;;;;;;1.25;0.75;;;;;9.95;69.53;100490.03;5029058;28;45483;-76
2023/01/09 05:52:21;;;;;;;;;1.50;1.00;;;;;9.91;69.40;100480.34;5030484;28;45503;-76
2023/01/09 05:54:47;;;;;;;;;0.00;0.00;;;;;10.02;69.56;100533.72;5027846;28;46224;-76
2023/01/09 05:57:12;;;;;;;;;1.75;1.00;;;;;10.04;70.31;100542.50;5021022;28;46029;-77
2023/01/09 05:59:38;;;;;;;;;3.00;1.25;;;;;10.04;70.73;100537.28;5037897;28;46060;-76
2023/01/09 06:02:04;;;;;;;;;0.00;0.00;;;;;9.98;70.97;100544.03;5037265;28;45504;-76
2023/01/09 06:04:29;;;;;;;;;1.00;0.00;;;;;9.94;71.08;100546.53;5027133;28;46169;-76
2023/01/09 06:06:55;;;;;;;;;0.33;0.00;;;;;9.94;71.53;100566.53;5028823;28;45399;-75
2023/01/09 06:09:21;;;;;;;;;0.33;0.00;;;;;9.95;71.76;100574.41;5023600;28;45417;-76
2023/01/09 06:11:46;;;;;;;;;1.00;1.00;;;;;9.98;71.81;100588.41;5034746;28;45395;-68
2023/01/09 06:14:12;;;;;;;;;1.67;0.00;;;;;9.94;71.52;100575.22;5036436;28;45398;-76
2023/01/09 06:16:37;;;;;;;;;1.00;0.00;;;;;9.84;71.55;100580.97;5020676;28;45738;-76
2023/01/09 06:19:04;;;;;;;;;0.00;0.00;;;;;9.64;71.96;100559.44;5031850;28;45483;-76
2023/01/09 06:21:31;;;;;;;;;0.00;0.00;;;;;9.69;72.34;100585.72;5017827;28;45478;-76
2023/01/09 06:23:57;;;;;;;;;1.25;1.25;;;;;9.70;72.16;100577.91;5016620;28;46020;-76
2023/01/09 06:26:23;;;;;;;;;0.67;0.00;;;;;9.74;72.18;100581.50;5016336;28;45388;-76
2023/01/09 06:28:49;;;;;;;;;1.67;0.00;;;;;9.78;71.77;100580.78;5017251;28;45451;-75
2023/01/09 06:31:14;;;;;;;;;2.00;0.00;;;;;9.81;71.25;100570.47;5033318;28;45630;-76
2023/01/09 06:33:40;;;;;;;;;0.00;0.00;;;;;9.82;71.08;100579.16;5037296;28;45998;-75
2023/01/09 06:36:06;;;;;;;;;1.00;1.00;;;;;9.45;71.32;100518.84;5029652;28;45570;-76
2023/01/09 06:38:31;;;;;;;;;0.00;0.00;;;;;9.69;70.84;100589.19;5017360;28;45486;-76
2023/01/09 06:40:57;;;;;;;;;0.00;0.00;;;;;9.74;70.87;100595.44;5017487;28;45444;-76
2023/01/09 06:43:22;;;;;;;;;0.00;0.00;;;;;9.61;70.82;100571.50;5016751;28;45752;-76
2023/01/09 06:45:48;;;;;;;;;0.00;0.00;;;;;9.58;70.29;100569.66;5017286;28;45301;-76
2023/01/09 06:48:13;;;;;;;;;1.00;0.00;;;;;9.66;70.17;100589.06;5016627;28;45566;-76
2023/01/09 06:50:39;;;;;;;;;0.75;0.00;;;;;9.59;70.56;100592.31;5016997;28;45266;-76
2023/01/09 06:53:05;;;;;;;;;2.25;1.00;;;;;9.58;70.42;100585.31;5025863;28;45340;-76
2023/01/09 06:55:30;;;;;;;;;1.00;0.00;;;;;9.53;70.58;100599.94;5035825;28;45442;-76
2023/01/09 06:57:56;;;;;;;;;3.00;2.00;;;;;9.51;69.93;100596.38;5035992;28;45485;-77
2023/01/09 07:00:21;;;;;;;;;35.75;27.50;;;;;9.35;70.42;100571.47;5034967;28;45458;-75
2023/01/09 07:02:47;;;;;;;;;12.50;10.50;;;;;9.56;70.01;100600.03;5036430;28;45515;-76
2023/01/09 07:05:13;;;;;;;;;4.00;3.00;;;;;9.38;70.10;100565.50;5035290;28;46353;-75
2023/01/09 07:07:39;;;;;;;;;1.00;1.00;;;;;9.64;70.09;100611.63;5029588;28;45427;-76
2023/01/09 07:10:07;;;;;;;;;20.50;19.00;;;;;9.68;69.82;100618.72;5027044;28;45248;-76
2023/01/09 07:12:32;;;;;;;;;11.00;9.25;;;;;9.50;70.06;100573.75;5035796;28;46198;-73
2023/01/09 07:14:58;;;;;;;;;4.50;2.75;;;;;9.73;69.88;100606.72;5019764;28;45327;-68
2023/01/09 07:17:24;;;;;;;;;3.50;3.00;;;;;9.66;70.03;100616.88;5035765;28;45790;-74
2023/01/09 07:19:50;;;;;;;;;7.50;6.50;;;;;9.68;69.97;100623.03;5035681;28;45477;-76
2023/01/09 07:22:16;;;;;;;;;7.25;7.25;;;;;9.70;70.06;100623.97;5021487;28;47035;-76
2023/01/09 07:24:43;;;;;;;;;13.50;12.00;;;;;9.74;69.83;100621.53;5030477;28;45510;-68
2023/01/09 07:27:09;;;;;;;;;9.75;8.25;;;;;9.72;69.76;100606.66;5029231;28;45457;-75
2023/01/09 07:29:34;;;;;;;;;8.00;5.00;;;;;9.80;69.73;100623.47;5026149;28;45501;-76
2023/01/09 07:32:00;;;;;;;;;5.00;3.75;;;;;9.82;70.31;100637.44;5021609;28;46108;-76
2023/01/09 07:34:26;;;;;;;;;4.75;3.25;;;;;9.83;70.09;100649.69;5033485;28;45362;-70
2023/01/09 07:36:51;;;;;;;;;4.00;2.00;;;;;9.83;70.29;100674.84;5035566;28;45399;-76
2023/01/09 07:39:17;;;;;;;;;3.00;3.00;;;;;9.79;69.70;100666.06;5026219;28;45262;-77
2023/01/09 07:41:43;;;;;;;;;1.50;0.75;;;;;9.84;70.06;100676.66;5015577;28;45953;-68
2023/01/09 07:44:10;;;;;;;;;0.25;0.00;;;;;9.67;69.94;100631.69;5031224;28;45553;-75
2023/01/09 07:46:35;;;;;;;;;1.00;0.50;;;;;9.91;69.91;100660.38;5019673;28;45379;-76
2023/01/09 07:49:01;;;;;;;;;5.75;5.00;;;;;9.92;69.90;100667.34;5026214;28;45374;-74
2023/01/09 07:51:27;;;;;;;;;1.00;1.00;;;;;9.89;69.82;100664.66;5029672;28;45465;-77
2023/01/09 07:53:53;;;;;;;;;4.00;4.00;;;;;9.98;69.43;100664.94;5033482;28;45489;-76
2023/01/09 07:56:18;;;;;;;;;4.00;4.00;;;;;9.64;69.31;100605.50;5019563;28;45753;-76
2023/01/09 07:58:44;;;;;;;;;12.50;9.00;;;;;9.86;69.53;100673.25;5016169;28;45403;-76
2023/01/09 08:01:09;;;;;;;;;12.25;10.25;;;;;9.82;69.59;100668.75;5015630;28;46304;-76
2023/01/09 08:03:35;;;;;;;;;57.25;44.00;;;;;9.61;69.56;100621.03;5018752;28;45468;-76
2023/01/09 08:06:00;;;;;;;;;2.00;2.00;;;;;9.84;69.42;100645.34;5016897;28;45569;-72
2023/01/09 08:08:26;;;;;;;;;9.25;8.50;;;;;9.89;69.38;100646.41;5017349;28;45635;-72
2023/01/09 08:10:52;;;;;;;;;5.00;4.50;;;;;9.63;69.37;100599.44;5020746;28;46640;-77
2023/01/09 08:13:23;;;;;;;;;5.00;3.25;;;;;9.97;69.06;100642.31;5016912;28;45490;-76
2023/01/09 08:15:49;;;;;;;;;4.25;3.50;;;;;10.02;67.90;100645.94;5017163;28;45379;-66
2023/01/09 08:18:14;;;;;;;;;3.50;3.00;;;;;10.02;68.39;100658.13;5017136;28;45430;-69
2023/01/09 08:20:40;;;;;;;;;5.50;3.00;;;;;10.11;68.33;100672.38;5017080;28;45537;-67
2023/01/09 08:23:05;;;;;;;;;2.75;2.00;;;;;10.11;67.77;100689.78;5016724;28;45388;-68
2023/01/09 08:25:32;;;;;;;;;5.00;5.00;;;;;10.09;67.48;100718.44;5017519;28;45372;-68
2023/01/09 08:27:57;;;;;;;;;7.00;5.75;;;;;10.08;67.86;100739.25;5019394;28;45698;-68
2023/01/09 08:30:23;;;;;;;;;4.00;2.25;;;;;10.10;68.10;100759.34;5016682;28;46171;-68
2023/01/09 08:32:52;;;;;;;;;1.00;1.00;;;;;9.98;68.87;100789.34;5016770;28;45548;-69
2023/01/09 08:35:19;;;;;;;;;0.00;0.00;;;;;10.03;69.59;100799.13;5017438;28;45539;-76
2023/01/09 08:37:46;;;;;;;;;0.00;0.00;;;;;9.88;69.49;100730.72;5018059;28;45422;-69
2023/01/09 08:40:12;;;;;;;;;2.00;1.00;;;;;9.98;69.28;100764.13;5015800;28;45535;-68
2023/01/09 08:48:06;;;;;;;;;3.00;2.00;;;;;10.05;68.53;100753.09;5016999;28;45332;-71
2023/01/09 08:50:32;;;;;;;;;2.00;2.00;;;;;10.14;67.74;100756.00;5015317;28;46517;-73
2023/01/09 08:52:58;;;;;;;;;3.00;2.00;;;;;10.19;68.50;100761.41;5016799;28;45765;-71
2023/01/09 08:55:23;;;;;;;;;2.50;2.00;;;;;10.13;68.62;100772.50;5018850;28;45573;-69
2023/01/09 08:57:53;;;;;;;;;4.75;3.00;;;;;10.18;68.59;100787.44;5016542;28;45617;-74
2023/01/09 09:00:20;;;;;;;;;1.00;0.00;;;;;10.18;68.06;100796.16;5017149;28;45383;-69
2023/01/09 09:02:53;;;;;;;;;3.25;2.00;;;;;10.15;68.59;100806.50;5030430;28;45469;-68
2023/01/09 09:05:20;;;;;;;;;2.00;2.00;;;;;10.14;68.62;100800.38;5023557;28;45506;-68
2023/01/09 09:07:55;;;;;;;;;2.00;2.00;;;;;10.00;68.90;100778.13;5016998;28;45471;-70
2023/01/09 09:10:27;;;;;;;;;2.75;2.50;;;;;10.14;69.72;100789.94;5014604;28;46120;-70
2023/01/09 09:12:55;;;;;;;;;1.33;0.67;;;;;10.14;69.14;100802.97;5014397;28;45410;-68
2023/01/09 09:15:25;;;;;;;;;1.00;0.50;;;;;10.18;69.22;100808.34;5023087;28;45412;-72
2023/01/09 09:17:53;;;;;;;;;3.75;2.00;;;;;10.22;69.17;100807.59;5025544;28;45530;-68
2023/01/09 09:20:21;;;;;;;;;3.00;2.00;;;;;10.19;68.89;100802.28;5032469;28;46199;-71
2023/01/09 09:22:47;;;;;;;;;5.00;4.25;;;;;10.23;69.13;100801.56;5020959;28;45383;-70
2023/01/09 09:25:14;;;;;;;;;14.50;10.00;;;;;10.31;68.75;100797.53;5021617;28;45499;-70
2023/01/09 09:27:40;;;;;;;;;2.00;1.00;;;;;10.35;68.66;100805.50;5036872;28;45406;-68
2023/01/09 09:30:07;;;;;;;;;1.00;1.00;;;;;10.49;68.53;100800.78;5035262;28;46884;-69
2023/01/09 09:32:33;;;;;;;;;1.00;0.33;;;;;10.63;67.48;100814.31;5036302;28;45438;-72
2023/01/09 09:34:58;;;;;;;;;2.00;1.00;;;;;10.41;67.62;100803.97;5021372;28;45801;-68
2023/01/09 09:37:24;;;;;;;;;0.33;0.00;;;;;10.31;67.46;100769.69;5017279;28;45501;-73
2023/01/09 09:39:49;;;;;;;;;5.00;3.50;;;;;10.89;67.13;100833.47;5023806;28;45466;-70
2023/01/09 09:45:43;;;;;;;;;1.00;0.00;;;;;11.19;65.90;100850.13;5036170;28;45438;-68
2023/01/09 09:48:18;;;;;;;;;1.00;0.67;;;;;11.22;65.84;100855.44;5032033;28;45339;-72
2023/01/09 09:50:55;;;;;;;;;3.00;2.00;;;;;11.28;65.65;100830.38;5016438;28;46093;-78
2023/01/09 09:53:35;;;;;;;;;0.33;0.00;;;;;11.00;65.69;100793.72;5031796;28;45580;-80
2023/01/09 09:56:02;;;;;;;;;0.00;0.00;;;;;11.02;65.20;100863.53;5007246;28;45605;-78
2023/01/09 09:58:37;;;;;;;;;0.00;0.00;;;;;10.91;65.56;100897.13;5028463;28;45249;-79
2023/01/09 10:01:04;;;;;;;;;0.67;0.00;;;;;10.86;66.17;100909.19;5030025;28;46640;-75
2023/01/09 10:03:37;;;;;;;;;0.00;0.00;;;;;10.81;66.47;100902.00;5037232;28;45490;-78
2023/01/09 10:06:30;;;;;;;;;1.33;0.00;;;;;10.86;66.56;100906.56;5037467;28;45276;-68
2023/01/09 10:09:10;;;;;;;;;1.00;0.00;;;;;10.81;67.14;100918.56;5037837;28;45537;-68
2023/01/09 10:11:51;;;;;;;;;1.00;1.00;;;;;10.76;67.12;100917.50;5037389;28;46155;-76
2023/01/09 10:14:17;;;;;;;;;1.33;1.00;;;;;10.71;67.45;100919.09;5037024;28;45407;-70
2023/01/09 10:16:55;;;;;;;;;1.00;0.00;;;;;10.63;67.97;100916.19;5037607;28;45459;-76
2023/01/09 10:19:42;;;;;;;;;2.00;0.67;;;;;10.62;68.31;100929.19;5017418;28;45410;-69
2023/01/09 10:22:31;;;;;;;;;4.00;3.25;;;;;10.64;68.47;100917.06;5014754;28;45430;-72
2023/01/09 10:25:02;;;;;;;;;2.00;2.00;;;;;10.67;69.01;100922.44;5014990;28;45420;-68
2023/01/09 10:27:49;;;;;;;;;9.25;6.00;;;;;10.68;68.76;100918.97;5025762;28;45857;-71
2023/01/09 10:31:04;;;;;;;;;8.00;8.00;;;;;10.66;68.62;100915.41;5014712;28;45808;-73
2023/01/09 10:33:57;;;;;;;;;4.00;3.00;;;;;10.64;68.88;100906.63;5011386;28;46366;-70
2023/01/09 10:36:58;;;;;;;;;11.00;8.25;;;;;10.62;68.65;100892.63;5014485;28;45459;-69
2023/01/09 10:39:39;;;;;;;;;5.50;5.50;;;;;10.63;67.10;100903.13;5016995;28;45356;-73
2023/01/09 10:42:22;;;;;;;;;5.75;4.25;;;;;10.72;68.10;100877.34;5017168;28;45509;-75
2023/01/09 10:44:53;;;;;;;;;5.00;2.00;;;;;10.99;67.07;100873.00;5016828;28;46218;-68
2023/01/09 10:47:31;;;;;;;;;1.67;1.00;;;;;11.23;66.87;100918.25;5015113;28;45519;-67
2023/01/09 10:49:58;;;;;;;;;1.67;1.00;;;;;11.46;65.83;100920.72;5015318;28;45486;-67
2023/01/09 10:52:39;;;;;;;;;1.00;1.00;;;;;11.45;65.89;100932.03;5015489;28;45432;-72
2023/01/09 10:55:18;;;;;;;;;3.00;2.33;;;;;11.27;66.11;100927.97;5024972;28;45457;-68
2023/01/09 10:57:49;;;;;;;;;0.67;0.00;;;;;11.12;66.10;100941.44;5011487;28;45418;-68
2023/01/09 11:00:18;;;;;;;;;2.00;0.50;;;;;11.04;67.46;100973.38;5015154;28;45745;-69
2023/01/09 11:02:44;;;;;;;;;2.00;1.67;;;;;11.06;68.11;100995.22;5031406;28;45891;-69
2023/01/09 11:05:17;;;;;;;;;1.00;0.00;;;;;10.98;67.62;101005.41;5022829;28;45568;-72
2023/01/09 11:07:48;;;;;;;;;1.33;0.00;;;;;10.90;68.52;101039.13;5018125;28;45529;-73
2023/01/09 11:10:14;;;;;;;;;1.00;1.00;;;;;10.76;69.03;101001.13;5023065;28;45708;-73
2023/01/09 11:12:40;;;;;;;;;2.00;1.67;;;;;10.83;68.11;101000.53;5021490;28;45484;-72
2023/01/09 11:15:15;;;;;;;;;2.50;2.00;;;;;10.92;68.14;101002.56;5020498;28;46177;-72
2023/01/09 11:17:48;;;;;;;;;0.00;0.00;;;;;11.05;67.39;100994.34;5016136;28;45487;-72
2023/01/09 11:20:24;;;;;;;;;0.67;0.67;;;;;11.25;66.66;100971.50;5023336;28;45359;-73
2023/01/09 11:22:53;;;;;;;;;7.33;5.00;;;;;11.18;65.49;100966.91;5021338;28;45428;-68
2023/01/09 11:25:22;;;;;;;;;2.67;2.00;;;;;11.24;66.00;100974.97;5018457;28;46217;-71
2023/01/09 11:28:03;;;;;;;;;0.00;0.00;;;;;11.47;65.85;100961.75;5013407;28;45470;-67
2023/01/09 11:30:36;;;;;;;;;2.00;2.00;;;;;11.78;65.58;100955.78;5013591;28;45576;-72
2023/01/09 11:33:17;;;;;;;;;2.00;1.67;;;;;12.06;64.96;100951.44;5014957;28;45832;-73
2023/01/09 11:36:00;;;;;;;;;4.50;3.25;;;;;12.16;64.61;100942.13;5012921;28;46452;-69
2023/01/09 11:38:26;;;;;;;;;5.50;3.50;;;;;12.27;64.04;100925.84;5014641;28;45488;-73
2023/01/09 11:40:59;;;;;;;;;4.75;3.00;;;;;12.31;64.55;100924.22;5019027;28;45621;-73
2023/01/09 11:43:31;;;;;;;;;0.00;0.00;;;;;12.38;63.98;100931.44;5017721;28;45428;-72
2023/01/09 11:46:04;;;;;;;;;1.33;1.00;;;;;12.40;63.92;100953.31;5011174;28;48262;-74
2023/01/09 11:48:38;;;;;;;;;0.00;0.00;;;;;12.11;64.07;100913.16;5017905;28;45375;-73
2023/01/09 11:51:16;;;;;;;;;2.67;0.00;;;;;12.33;63.75;100970.59;5016482;28;45442;-69